sensor_id;sensor_type;location;lat;lon;timestamp;P1;durP1;ratioP1;P2;durP2;ratioP2
73900;SDS011;62235;52.160;7.526;2022-09-01T00:01:23;3.20;;;1.15;;
73900;SDS011;62235;52.160;7.526;2022-09-01T00:03:51;2.63;;;0.82;;
73900;SDS011;62235;52.160;7.526;2022-09-01T00:06:18;1.73;;;0.90;;
73900;SDS011;62235;52.160;7.526;2022-09-01T00:08:50;2.70;;;0.85;;
73900;SDS011;62235;52.160;7.526;2022-09-01T00:11:16;5.57;;;1.10;;
73900;SDS011;62235;52.160;7.526;2022-09-01T00:13:41;4.32;;;1.08;;
73900;SDS011;62235;52.160;7.526;2022-09-01T00:16:07;2.50;;;1.00;;
73900;SDS011;62235;52.160;7.526;2022-09-01T00:18:32;1.15;;;0.85;;
73900;SDS011;62235;52.160;7.526;2022-09-01T00:20:58;2.70;;;0.70;;
73900;SDS011;62235;52.160;7.526;2022-09-01T00:23:27;1.95;;;0.80;;
73900;SDS011;62235;52.160;7.526;2022-09-01T00:28:18;1.33;;;0.80;;
73900;SDS011;62235;52.160;7.526;2022-09-01T00:30:43;2.00;;;0.87;;
73900;SDS011;62235;52.160;7.526;2022-09-01T00:33:08;1.27;;;0.80;;
73900;SDS011;62235;52.160;7.526;2022-09-01T00:35:34;3.10;;;0.95;;
73900;SDS011;62235;52.160;7.526;2022-09-01T00:37:59;2.80;;;1.00;;
73900;SDS011;62235;52.160;7.526;2022-09-01T00:40:24;1.83;;;0.73;;
73900;SDS011;62235;52.160;7.526;2022-09-01T00:42:50;2.47;;;0.80;;
73900;SDS011;62235;52.160;7.526;2022-09-01T00:45:17;1.77;;;0.90;;
73900;SDS011;62235;52.160;7.526;2022-09-01T00:47:44;2.75;;;0.77;;
73900;SDS011;62235;52.160;7.526;2022-09-01T00:50:10;2.57;;;0.80;;
73900;SDS011;62235;52.160;7.526;2022-09-01T00:52:47;1.33;;;0.90;;
73900;SDS011;62235;52.160;7.526;2022-09-01T00:55:17;2.75;;;0.90;;
73900;SDS011;62235;52.160;7.526;2022-09-01T00:57:46;1.73;;;0.90;;
73900;SDS011;62235;52.160;7.526;2022-09-01T01:00:17;1.52;;;0.95;;
73900;SDS011;62235;52.160;7.526;2022-09-01T01:02:44;2.30;;;0.90;;
73900;SDS011;62235;52.160;7.526;2022-09-01T01:05:10;1.85;;;0.88;;
73900;SDS011;62235;52.160;7.526;2022-09-01T01:07:37;1.35;;;0.80;;
73900;SDS011;62235;52.160;7.526;2022-09-01T01:10:06;2.03;;;0.80;;
73900;SDS011;62235;52.160;7.526;2022-09-01T01:12:35;2.83;;;0.90;;
73900;SDS011;62235;52.160;7.526;2022-09-01T01:15:02;2.10;;;0.93;;
73900;SDS011;62235;52.160;7.526;2022-09-01T01:17:29;3.22;;;0.95;;
73900;SDS011;62235;52.160;7.526;2022-09-01T01:19:55;1.37;;;0.70;;
73900;SDS011;62235;52.160;7.526;2022-09-01T01:22:44;1.83;;;0.77;;
73900;SDS011;62235;52.160;7.526;2022-09-01T01:25:34;3.33;;;1.50;;
73900;SDS011;62235;52.160;7.526;2022-09-01T01:28:07;2.20;;;0.80;;
73900;SDS011;62235;52.160;7.526;2022-09-01T01:30:37;1.63;;;0.85;;
73900;SDS011;62235;52.160;7.526;2022-09-01T01:33:04;0.98;;;0.85;;
73900;SDS011;62235;52.160;7.526;2022-09-01T01:35:29;1.92;;;0.80;;
73900;SDS011;62235;52.160;7.526;2022-09-01T01:37:55;1.52;;;1.00;;
73900;SDS011;62235;52.160;7.526;2022-09-01T01:40:21;1.67;;;0.75;;
73900;SDS011;62235;52.160;7.526;2022-09-01T01:42:48;2.90;;;0.95;;
73900;SDS011;62235;52.160;7.526;2022-09-01T01:45:15;1.83;;;0.80;;
73900;SDS011;62235;52.160;7.526;2022-09-01T01:47:44;1.25;;;0.80;;
73900;SDS011;62235;52.160;7.526;2022-09-01T01:50:14;2.53;;;0.65;;
73900;SDS011;62235;52.160;7.526;2022-09-01T01:52:40;1.40;;;0.82;;
73900;SDS011;62235;52.160;7.526;2022-09-01T01:55:06;2.30;;;0.80;;
73900;SDS011;62235;52.160;7.526;2022-09-01T01:57:36;1.35;;;0.90;;
73900;SDS011;62235;52.160;7.526;2022-09-01T02:00:13;1.27;;;0.80;;
73900;SDS011;62235;52.160;7.526;2022-09-01T02:02:43;2.40;;;0.85;;
73900;SDS011;62235;52.160;7.526;2022-09-01T02:05:12;9.88;;;1.60;;
73900;SDS011;62235;52.160;7.526;2022-09-01T02:07:40;2.40;;;1.00;;
73900;SDS011;62235;52.160;7.526;2022-09-01T02:10:07;1.77;;;0.90;;
73900;SDS011;62235;52.160;7.526;2022-09-01T02:12:33;2.00;;;0.90;;
73900;SDS011;62235;52.160;7.526;2022-09-01T02:14:59;0.95;;;0.70;;
73900;SDS011;62235;52.160;7.526;2022-09-01T02:17:26;3.75;;;1.08;;
73900;SDS011;62235;52.160;7.526;2022-09-01T02:19:51;3.93;;;1.00;;
73900;SDS011;62235;52.160;7.526;2022-09-01T02:22:20;1.67;;;0.90;;
73900;SDS011;62235;52.160;7.526;2022-09-01T02:24:45;1.17;;;0.73;;
73900;SDS011;62235;52.160;7.526;2022-09-01T02:27:13;1.55;;;1.02;;
73900;SDS011;62235;52.160;7.526;2022-09-01T02:29:42;1.42;;;0.90;;
73900;SDS011;62235;52.160;7.526;2022-09-01T02:32:08;1.60;;;0.97;;
73900;SDS011;62235;52.160;7.526;2022-09-01T02:34:35;2.42;;;0.85;;
73900;SDS011;62235;52.160;7.526;2022-09-01T02:37:03;2.35;;;1.08;;
73900;SDS011;62235;52.160;7.526;2022-09-01T02:39:29;1.10;;;0.80;;
73900;SDS011;62235;52.160;7.526;2022-09-01T02:41:58;2.38;;;1.27;;
73900;SDS011;62235;52.160;7.526;2022-09-01T02:44:25;2.22;;;0.88;;
73900;SDS011;62235;52.160;7.526;2022-09-01T02:46:51;1.73;;;0.95;;
73900;SDS011;62235;52.160;7.526;2022-09-01T02:49:18;2.58;;;0.82;;
73900;SDS011;62235;52.160;7.526;2022-09-01T02:51:45;5.70;;;0.93;;
73900;SDS011;62235;52.160;7.526;2022-09-01T02:56:41;1.35;;;1.00;;
73900;SDS011;62235;52.160;7.526;2022-09-01T02:59:07;1.73;;;1.00;;
73900;SDS011;62235;52.160;7.526;2022-09-01T03:01:36;2.60;;;1.25;;
73900;SDS011;62235;52.160;7.526;2022-09-01T03:04:03;2.67;;;1.02;;
73900;SDS011;62235;52.160;7.526;2022-09-01T03:06:34;3.25;;;1.10;;
73900;SDS011;62235;52.160;7.526;2022-09-01T03:09:02;3.03;;;0.90;;
73900;SDS011;62235;52.160;7.526;2022-09-01T03:11:30;7.75;;;1.60;;
73900;SDS011;62235;52.160;7.526;2022-09-01T03:13:57;1.75;;;1.10;;
73900;SDS011;62235;52.160;7.526;2022-09-01T03:16:23;2.67;;;0.90;;
73900;SDS011;62235;52.160;7.526;2022-09-01T03:18:48;1.10;;;0.80;;
73900;SDS011;62235;52.160;7.526;2022-09-01T03:21:15;2.55;;;1.00;;
73900;SDS011;62235;52.160;7.526;2022-09-01T03:23:41;1.17;;;0.90;;
73900;SDS011;62235;52.160;7.526;2022-09-01T03:26:07;1.38;;;0.85;;
73900;SDS011;62235;52.160;7.526;2022-09-01T03:28:33;2.42;;;0.90;;
73900;SDS011;62235;52.160;7.526;2022-09-01T03:30:58;2.83;;;0.80;;
73900;SDS011;62235;52.160;7.526;2022-09-01T03:33:24;6.10;;;1.00;;
73900;SDS011;62235;52.160;7.526;2022-09-01T03:35:51;2.22;;;1.08;;
73900;SDS011;62235;52.160;7.526;2022-09-01T03:38:17;3.63;;;1.10;;
73900;SDS011;62235;52.160;7.526;2022-09-01T03:40:50;3.90;;;1.10;;
73900;SDS011;62235;52.160;7.526;2022-09-01T03:43:16;2.33;;;1.20;;
73900;SDS011;62235;52.160;7.526;2022-09-01T03:45:43;1.70;;;1.20;;
73900;SDS011;62235;52.160;7.526;2022-09-01T03:48:10;4.72;;;1.40;;
73900;SDS011;62235;52.160;7.526;2022-09-01T03:50:37;2.80;;;1.10;;
73900;SDS011;62235;52.160;7.526;2022-09-01T03:53:09;1.33;;;1.00;;
73900;SDS011;62235;52.160;7.526;2022-09-01T03:55:35;2.67;;;1.10;;
73900;SDS011;62235;52.160;7.526;2022-09-01T03:58:05;4.57;;;1.17;;
73900;SDS011;62235;52.160;7.526;2022-09-01T04:00:32;1.60;;;1.10;;
73900;SDS011;62235;52.160;7.526;2022-09-01T04:03:01;4.78;;;1.40;;
73900;SDS011;62235;52.160;7.526;2022-09-01T04:05:28;2.58;;;1.40;;
73900;SDS011;62235;52.160;7.526;2022-09-01T04:07:55;2.03;;;1.10;;
73900;SDS011;62235;52.160;7.526;2022-09-01T04:10:23;3.63;;;1.38;;
73900;SDS011;62235;52.160;7.526;2022-09-01T04:12:48;1.73;;;1.10;;
73900;SDS011;62235;52.160;7.526;2022-09-01T04:15:15;2.22;;;1.42;;
73900;SDS011;62235;52.160;7.526;2022-09-01T04:17:42;2.80;;;1.20;;
73900;SDS011;62235;52.160;7.526;2022-09-01T04:20:26;5.18;;;1.48;;
73900;SDS011;62235;52.160;7.526;2022-09-01T04:22:52;4.18;;;1.70;;
73900;SDS011;62235;52.160;7.526;2022-09-01T04:25:19;2.88;;;1.45;;
73900;SDS011;62235;52.160;7.526;2022-09-01T04:27:49;3.35;;;1.45;;
73900;SDS011;62235;52.160;7.526;2022-09-01T04:30:16;4.40;;;1.40;;
73900;SDS011;62235;52.160;7.526;2022-09-01T04:32:42;3.90;;;1.60;;
73900;SDS011;62235;52.160;7.526;2022-09-01T04:35:10;2.28;;;1.40;;
73900;SDS011;62235;52.160;7.526;2022-09-01T04:37:40;4.47;;;1.55;;
73900;SDS011;62235;52.160;7.526;2022-09-01T04:40:07;4.10;;;1.70;;
73900;SDS011;62235;52.160;7.526;2022-09-01T04:42:34;5.70;;;1.40;;
73900;SDS011;62235;52.160;7.526;2022-09-01T04:44:59;5.57;;;1.60;;
73900;SDS011;62235;52.160;7.526;2022-09-01T04:47:25;2.72;;;1.20;;
73900;SDS011;62235;52.160;7.526;2022-09-01T04:49:58;5.53;;;1.55;;
73900;SDS011;62235;52.160;7.526;2022-09-01T04:52:25;4.35;;;1.70;;
73900;SDS011;62235;52.160;7.526;2022-09-01T04:54:51;4.28;;;1.63;;
73900;SDS011;62235;52.160;7.526;2022-09-01T04:57:16;2.90;;;1.60;;
73900;SDS011;62235;52.160;7.526;2022-09-01T04:59:42;5.53;;;2.75;;
73900;SDS011;62235;52.160;7.526;2022-09-01T05:02:07;3.60;;;1.80;;
73900;SDS011;62235;52.160;7.526;2022-09-01T05:04:33;5.20;;;1.90;;
73900;SDS011;62235;52.160;7.526;2022-09-01T05:06:59;2.50;;;1.40;;
73900;SDS011;62235;52.160;7.526;2022-09-01T05:09:32;5.82;;;1.60;;
73900;SDS011;62235;52.160;7.526;2022-09-01T05:11:59;3.95;;;1.55;;
73900;SDS011;62235;52.160;7.526;2022-09-01T05:14:35;5.35;;;1.48;;
73900;SDS011;62235;52.160;7.526;2022-09-01T05:17:01;5.85;;;1.98;;
73900;SDS011;62235;52.160;7.526;2022-09-01T05:19:30;3.50;;;1.65;;
73900;SDS011;62235;52.160;7.526;2022-09-01T05:21:56;6.78;;;1.40;;
73900;SDS011;62235;52.160;7.526;2022-09-01T05:24:24;4.22;;;1.70;;
73900;SDS011;62235;52.160;7.526;2022-09-01T05:26:54;9.65;;;2.33;;
73900;SDS011;62235;52.160;7.526;2022-09-01T05:29:19;2.40;;;1.40;;
73900;SDS011;62235;52.160;7.526;2022-09-01T05:31:45;1.73;;;1.35;;
73900;SDS011;62235;52.160;7.526;2022-09-01T05:34:12;4.47;;;1.40;;
73900;SDS011;62235;52.160;7.526;2022-09-01T05:36:40;4.10;;;1.50;;
73900;SDS011;62235;52.160;7.526;2022-09-01T05:39:07;1.85;;;1.30;;
73900;SDS011;62235;52.160;7.526;2022-09-01T05:41:36;2.92;;;1.40;;
73900;SDS011;62235;52.160;7.526;2022-09-01T05:44:03;5.05;;;1.50;;
73900;SDS011;62235;52.160;7.526;2022-09-01T05:46:31;3.28;;;1.90;;
73900;SDS011;62235;52.160;7.526;2022-09-01T05:48:57;2.08;;;1.40;;
73900;SDS011;62235;52.160;7.526;2022-09-01T05:51:25;3.35;;;1.77;;
73900;SDS011;62235;52.160;7.526;2022-09-01T05:53:52;5.93;;;1.67;;
73900;SDS011;62235;52.160;7.526;2022-09-01T05:56:22;2.47;;;1.65;;
73900;SDS011;62235;52.160;7.526;2022-09-01T05:58:51;7.63;;;4.05;;
73900;SDS011;62235;52.160;7.526;2022-09-01T06:01:18;1.67;;;1.45;;
73900;SDS011;62235;52.160;7.526;2022-09-01T06:03:47;1.80;;;1.27;;
73900;SDS011;62235;52.160;7.526;2022-09-01T06:06:18;2.53;;;1.50;;
73900;SDS011;62235;52.160;7.526;2022-09-01T06:08:48;3.50;;;1.60;;
73900;SDS011;62235;52.160;7.526;2022-09-01T06:11:15;4.50;;;1.70;;
73900;SDS011;62235;52.160;7.526;2022-09-01T06:13:41;2.88;;;1.65;;
73900;SDS011;62235;52.160;7.526;2022-09-01T06:16:08;4.97;;;1.50;;
73900;SDS011;62235;52.160;7.526;2022-09-01T06:18:36;5.43;;;1.67;;
73900;SDS011;62235;52.160;7.526;2022-09-01T06:21:02;3.35;;;1.42;;
73900;SDS011;62235;52.160;7.526;2022-09-01T06:23:29;8.73;;;1.98;;
73900;SDS011;62235;52.160;7.526;2022-09-01T06:25:55;3.20;;;1.20;;
73900;SDS011;62235;52.160;7.526;2022-09-01T06:28:20;5.80;;;1.60;;
73900;SDS011;62235;52.160;7.526;2022-09-01T06:30:47;3.22;;;1.50;;
73900;SDS011;62235;52.160;7.526;2022-09-01T06:33:13;2.33;;;1.30;;
73900;SDS011;62235;52.160;7.526;2022-09-01T06:35:39;2.33;;;1.60;;
73900;SDS011;62235;52.160;7.526;2022-09-01T06:38:06;1.70;;;1.30;;
73900;SDS011;62235;52.160;7.526;2022-09-01T06:40:32;7.38;;;1.92;;
73900;SDS011;62235;52.160;7.526;2022-09-01T06:43:00;3.17;;;1.50;;
73900;SDS011;62235;52.160;7.526;2022-09-01T06:45:32;3.55;;;1.70;;
73900;SDS011;62235;52.160;7.526;2022-09-01T06:48:08;3.20;;;1.63;;
73900;SDS011;62235;52.160;7.526;2022-09-01T06:50:36;3.40;;;1.88;;
73900;SDS011;62235;52.160;7.526;2022-09-01T06:53:03;4.00;;;1.48;;
73900;SDS011;62235;52.160;7.526;2022-09-01T06:55:35;3.47;;;1.20;;
73900;SDS011;62235;52.160;7.526;2022-09-01T06:58:02;2.22;;;1.55;;
73900;SDS011;62235;52.160;7.526;2022-09-01T07:00:30;3.50;;;1.40;;
73900;SDS011;62235;52.160;7.526;2022-09-01T07:02:56;4.88;;;1.20;;
73900;SDS011;62235;52.160;7.526;2022-09-01T07:05:22;1.95;;;1.35;;
73900;SDS011;62235;52.160;7.526;2022-09-01T07:07:49;3.90;;;1.50;;
73900;SDS011;62235;52.160;7.526;2022-09-01T07:10:19;2.00;;;1.35;;
73900;SDS011;62235;52.160;7.526;2022-09-01T07:12:51;1.42;;;1.00;;
73900;SDS011;62235;52.160;7.526;2022-09-01T07:15:21;6.07;;;1.25;;
73900;SDS011;62235;52.160;7.526;2022-09-01T07:17:52;4.47;;;1.45;;
73900;SDS011;62235;52.160;7.526;2022-09-01T07:20:20;2.15;;;1.00;;
73900;SDS011;62235;52.160;7.526;2022-09-01T07:22:50;3.83;;;1.40;;
73900;SDS011;62235;52.160;7.526;2022-09-01T07:25:17;6.30;;;1.58;;
73900;SDS011;62235;52.160;7.526;2022-09-01T07:27:44;8.88;;;1.38;;
73900;SDS011;62235;52.160;7.526;2022-09-01T07:30:13;4.65;;;1.25;;
73900;SDS011;62235;52.160;7.526;2022-09-01T07:32:39;2.90;;;1.10;;
73900;SDS011;62235;52.160;7.526;2022-09-01T07:35:07;3.55;;;1.02;;
73900;SDS011;62235;52.160;7.526;2022-09-01T07:37:34;2.05;;;1.17;;
73900;SDS011;62235;52.160;7.526;2022-09-01T07:40:02;7.13;;;1.23;;
73900;SDS011;62235;52.160;7.526;2022-09-01T07:42:32;2.53;;;1.17;;
73900;SDS011;62235;52.160;7.526;2022-09-01T07:44:58;2.25;;;1.27;;
73900;SDS011;62235;52.160;7.526;2022-09-01T07:47:24;3.92;;;1.00;;
73900;SDS011;62235;52.160;7.526;2022-09-01T07:49:50;2.05;;;0.90;;
73900;SDS011;62235;52.160;7.526;2022-09-01T07:52:15;1.63;;;1.02;;
73900;SDS011;62235;52.160;7.526;2022-09-01T07:54:41;4.00;;;1.13;;
73900;SDS011;62235;52.160;7.526;2022-09-01T07:57:07;4.03;;;1.17;;
73900;SDS011;62235;52.160;7.526;2022-09-01T07:59:32;1.50;;;0.90;;
73900;SDS011;62235;52.160;7.526;2022-09-01T08:01:59;1.48;;;0.90;;
73900;SDS011;62235;52.160;7.526;2022-09-01T08:04:26;4.78;;;0.95;;
73900;SDS011;62235;52.160;7.526;2022-09-01T08:06:51;0.83;;;0.73;;
73900;SDS011;62235;52.160;7.526;2022-09-01T08:09:17;2.15;;;0.70;;
73900;SDS011;62235;52.160;7.526;2022-09-01T08:11:42;2.60;;;0.80;;
73900;SDS011;62235;52.160;7.526;2022-09-01T08:14:08;3.65;;;0.82;;
73900;SDS011;62235;52.160;7.526;2022-09-01T08:16:34;1.33;;;0.70;;
73900;SDS011;62235;52.160;7.526;2022-09-01T08:18:59;3.28;;;0.88;;
73900;SDS011;62235;52.160;7.526;2022-09-01T08:21:25;0.80;;;0.60;;
73900;SDS011;62235;52.160;7.526;2022-09-01T08:23:52;3.10;;;1.13;;
73900;SDS011;62235;52.160;7.526;2022-09-01T08:26:19;1.70;;;0.73;;
73900;SDS011;62235;52.160;7.526;2022-09-01T08:28:47;2.33;;;0.70;;
73900;SDS011;62235;52.160;7.526;2022-09-01T08:31:13;1.98;;;0.70;;
73900;SDS011;62235;52.160;7.526;2022-09-01T08:33:41;1.85;;;0.80;;
73900;SDS011;62235;52.160;7.526;2022-09-01T08:36:08;1.23;;;0.60;;
73900;SDS011;62235;52.160;7.526;2022-09-01T08:38:34;5.40;;;0.90;;
73900;SDS011;62235;52.160;7.526;2022-09-01T08:41:00;6.00;;;0.90;;
73900;SDS011;62235;52.160;7.526;2022-09-01T08:46:02;0.98;;;0.60;;
73900;SDS011;62235;52.160;7.526;2022-09-01T08:48:36;4.68;;;0.90;;
73900;SDS011;62235;52.160;7.526;2022-09-01T08:54:20;1.35;;;0.68;;
73900;SDS011;62235;52.160;7.526;2022-09-01T08:59:36;5.43;;;1.20;;
73900;SDS011;62235;52.160;7.526;2022-09-01T09:02:05;5.27;;;1.00;;
73900;SDS011;62235;52.160;7.526;2022-09-01T09:07:34;1.50;;;0.77;;
73900;SDS011;62235;52.160;7.526;2022-09-01T09:10:20;1.58;;;0.90;;
73900;SDS011;62235;52.160;7.526;2022-09-01T09:15:46;3.25;;;0.80;;
73900;SDS011;62235;52.160;7.526;2022-09-01T09:21:14;1.00;;;0.60;;
73900;SDS011;62235;52.160;7.526;2022-09-01T09:23:44;1.35;;;0.77;;
73900;SDS011;62235;52.160;7.526;2022-09-01T09:26:11;1.67;;;0.77;;
73900;SDS011;62235;52.160;7.526;2022-09-01T09:28:37;2.22;;;1.00;;
73900;SDS011;62235;52.160;7.526;2022-09-01T09:33:56;4.28;;;0.80;;
73900;SDS011;62235;52.160;7.526;2022-09-01T09:36:42;3.53;;;0.80;;
73900;SDS011;62235;52.160;7.526;2022-09-01T09:41:36;1.08;;;0.70;;
73900;SDS011;62235;52.160;7.526;2022-09-01T09:44:25;1.33;;;0.70;;
73900;SDS011;62235;52.160;7.526;2022-09-01T09:46:50;2.83;;;0.80;;
73900;SDS011;62235;52.160;7.526;2022-09-01T09:52:13;1.77;;;0.75;;
73900;SDS011;62235;52.160;7.526;2022-09-01T09:54:57;1.98;;;0.60;;
73900;SDS011;62235;52.160;7.526;2022-09-01T09:57:24;1.58;;;0.85;;
73900;SDS011;62235;52.160;7.526;2022-09-01T09:59:56;3.20;;;0.65;;
73900;SDS011;62235;52.160;7.526;2022-09-01T10:02:39;4.85;;;0.90;;
73900;SDS011;62235;52.160;7.526;2022-09-01T10:07:49;3.38;;;1.00;;
73900;SDS011;62235;52.160;7.526;2022-09-01T10:12:52;4.20;;;1.02;;
73900;SDS011;62235;52.160;7.526;2022-09-01T10:15:18;4.40;;;0.80;;
73900;SDS011;62235;52.160;7.526;2022-09-01T10:17:45;0.98;;;0.63;;
73900;SDS011;62235;52.160;7.526;2022-09-01T10:20:14;4.03;;;0.70;;
73900;SDS011;62235;52.160;7.526;2022-09-01T10:22:43;1.58;;;0.82;;
73900;SDS011;62235;52.160;7.526;2022-09-01T10:25:10;2.58;;;0.80;;
73900;SDS011;62235;52.160;7.526;2022-09-01T10:27:41;3.03;;;0.75;;
73900;SDS011;62235;52.160;7.526;2022-09-01T10:30:11;3.03;;;0.90;;
73900;SDS011;62235;52.160;7.526;2022-09-01T10:32:42;4.10;;;0.70;;
73900;SDS011;62235;52.160;7.526;2022-09-01T10:35:18;2.67;;;0.80;;
73900;SDS011;62235;52.160;7.526;2022-09-01T10:37:48;3.55;;;0.82;;
73900;SDS011;62235;52.160;7.526;2022-09-01T10:40:19;2.97;;;0.93;;
73900;SDS011;62235;52.160;7.526;2022-09-01T10:43:00;0.88;;;0.57;;
73900;SDS011;62235;52.160;7.526;2022-09-01T10:45:52;0.82;;;0.60;;
73900;SDS011;62235;52.160;7.526;2022-09-01T10:50:44;1.40;;;0.80;;
73900;SDS011;62235;52.160;7.526;2022-09-01T10:53:11;2.03;;;0.70;;
73900;SDS011;62235;52.160;7.526;2022-09-01T10:56:02;1.25;;;0.73;;
73900;SDS011;62235;52.160;7.526;2022-09-01T11:09:15;2.17;;;1.00;;
73900;SDS011;62235;52.160;7.526;2022-09-01T11:14:21;1.42;;;0.70;;
73900;SDS011;62235;52.160;7.526;2022-09-01T11:25:51;1.67;;;0.60;;
73900;SDS011;62235;52.160;7.526;2022-09-01T11:28:03;2.08;;;0.80;;
73900;SDS011;62235;52.160;7.526;2022-09-01T11:30:34;2.55;;;0.90;;
73900;SDS011;62235;52.160;7.526;2022-09-01T11:41:51;2.22;;;0.63;;
73900;SDS011;62235;52.160;7.526;2022-09-01T11:44:46;1.70;;;0.82;;
73900;SDS011;62235;52.160;7.526;2022-09-01T11:47:18;1.98;;;0.90;;
73900;SDS011;62235;52.160;7.526;2022-09-01T11:49:50;1.17;;;0.80;;
73900;SDS011;62235;52.160;7.526;2022-09-01T11:52:25;6.88;;;1.00;;
73900;SDS011;62235;52.160;7.526;2022-09-01T11:54:54;3.97;;;0.70;;
73900;SDS011;62235;52.160;7.526;2022-09-01T11:57:21;1.33;;;0.80;;
73900;SDS011;62235;52.160;7.526;2022-09-01T11:59:49;0.88;;;0.60;;
73900;SDS011;62235;52.160;7.526;2022-09-01T12:02:18;12.80;;;1.40;;
73900;SDS011;62235;52.160;7.526;2022-09-01T12:04:47;2.03;;;0.65;;
73900;SDS011;62235;52.160;7.526;2022-09-01T12:07:22;1.13;;;0.80;;
73900;SDS011;62235;52.160;7.526;2022-09-01T12:09:54;2.63;;;0.70;;
73900;SDS011;62235;52.160;7.526;2022-09-01T12:12:34;3.05;;;1.00;;
73900;SDS011;62235;52.160;7.526;2022-09-01T12:15:07;3.45;;;0.88;;
73900;SDS011;62235;52.160;7.526;2022-09-01T12:17:45;1.58;;;0.70;;
73900;SDS011;62235;52.160;7.526;2022-09-01T12:22:47;2.78;;;1.05;;
73900;SDS011;62235;52.160;7.526;2022-09-01T12:25:20;2.35;;;1.00;;
73900;SDS011;62235;52.160;7.526;2022-09-01T12:27:47;2.25;;;0.80;;
73900;SDS011;62235;52.160;7.526;2022-09-01T12:30:13;1.95;;;0.80;;
73900;SDS011;62235;52.160;7.526;2022-09-01T12:32:39;1.20;;;0.70;;
73900;SDS011;62235;52.160;7.526;2022-09-01T12:35:11;3.45;;;0.88;;
73900;SDS011;62235;52.160;7.526;2022-09-01T12:37:42;2.38;;;0.93;;
73900;SDS011;62235;52.160;7.526;2022-09-01T12:40:19;4.93;;;1.17;;
73900;SDS011;62235;52.160;7.526;2022-09-01T12:42:48;2.08;;;0.90;;
73900;SDS011;62235;52.160;7.526;2022-09-01T12:45:14;2.78;;;0.85;;
73900;SDS011;62235;52.160;7.526;2022-09-01T12:48:04;4.05;;;0.95;;
73900;SDS011;62235;52.160;7.526;2022-09-01T12:53:02;3.30;;;0.90;;
73900;SDS011;62235;52.160;7.526;2022-09-01T12:55:33;1.38;;;0.70;;
73900;SDS011;62235;52.160;7.526;2022-09-01T12:58:00;1.63;;;0.80;;
73900;SDS011;62235;52.160;7.526;2022-09-01T13:05:45;2.15;;;0.60;;
73900;SDS011;62235;52.160;7.526;2022-09-01T13:08:16;2.78;;;0.73;;
73900;SDS011;62235;52.160;7.526;2022-09-01T13:10:47;2.70;;;1.10;;
73900;SDS011;62235;52.160;7.526;2022-09-01T13:13:15;3.05;;;0.90;;
73900;SDS011;62235;52.160;7.526;2022-09-01T13:15:43;2.00;;;1.05;;
73900;SDS011;62235;52.160;7.526;2022-09-01T13:18:12;12.15;;;1.33;;
73900;SDS011;62235;52.160;7.526;2022-09-01T13:20:38;1.48;;;0.60;;
73900;SDS011;62235;52.160;7.526;2022-09-01T13:23:03;1.98;;;0.90;;
73900;SDS011;62235;52.160;7.526;2022-09-01T13:25:28;1.35;;;0.80;;
73900;SDS011;62235;52.160;7.526;2022-09-01T13:27:54;2.23;;;0.63;;
73900;SDS011;62235;52.160;7.526;2022-09-01T13:30:20;3.28;;;0.68;;
73900;SDS011;62235;52.160;7.526;2022-09-01T13:32:48;1.20;;;0.70;;
73900;SDS011;62235;52.160;7.526;2022-09-01T13:35:15;1.85;;;0.82;;
73900;SDS011;62235;52.160;7.526;2022-09-01T13:37:43;2.70;;;1.27;;
73900;SDS011;62235;52.160;7.526;2022-09-01T13:40:09;0.80;;;0.57;;
73900;SDS011;62235;52.160;7.526;2022-09-01T13:42:47;1.38;;;0.60;;
73900;SDS011;62235;52.160;7.526;2022-09-01T13:45:14;2.10;;;0.60;;
73900;SDS011;62235;52.160;7.526;2022-09-01T13:47:42;3.63;;;0.63;;
73900;SDS011;62235;52.160;7.526;2022-09-01T13:50:12;1.15;;;0.60;;
73900;SDS011;62235;52.160;7.526;2022-09-01T13:52:39;3.15;;;0.63;;
73900;SDS011;62235;52.160;7.526;2022-09-01T13:55:06;3.08;;;1.17;;
73900;SDS011;62235;52.160;7.526;2022-09-01T13:57:34;2.30;;;0.70;;
73900;SDS011;62235;52.160;7.526;2022-09-01T13:59:59;10.13;;;1.27;;
73900;SDS011;62235;52.160;7.526;2022-09-01T14:02:24;1.73;;;0.47;;
73900;SDS011;62235;52.160;7.526;2022-09-01T14:04:50;1.33;;;0.82;;
73900;SDS011;62235;52.160;7.526;2022-09-01T14:07:16;3.03;;;0.90;;
73900;SDS011;62235;52.160;7.526;2022-09-01T14:09:42;3.20;;;0.55;;
73900;SDS011;62235;52.160;7.526;2022-09-01T14:12:08;0.95;;;0.60;;
73900;SDS011;62235;52.160;7.526;2022-09-01T14:14:33;2.40;;;0.80;;
73900;SDS011;62235;52.160;7.526;2022-09-01T14:16:59;2.28;;;1.00;;
73900;SDS011;62235;52.160;7.526;2022-09-01T14:19:24;1.63;;;0.70;;
73900;SDS011;62235;52.160;7.526;2022-09-01T14:21:49;2.27;;;0.80;;
73900;SDS011;62235;52.160;7.526;2022-09-01T14:24:15;4.38;;;0.95;;
73900;SDS011;62235;52.160;7.526;2022-09-01T14:26:43;1.30;;;0.80;;
73900;SDS011;62235;52.160;7.526;2022-09-01T14:29:09;2.88;;;0.60;;
73900;SDS011;62235;52.160;7.526;2022-09-01T14:31:35;1.90;;;0.70;;
73900;SDS011;62235;52.160;7.526;2022-09-01T14:34:01;2.88;;;0.70;;
73900;SDS011;62235;52.160;7.526;2022-09-01T14:36:27;2.22;;;0.90;;
73900;SDS011;62235;52.160;7.526;2022-09-01T14:38:53;2.38;;;0.70;;
73900;SDS011;62235;52.160;7.526;2022-09-01T14:41:19;2.17;;;0.70;;
73900;SDS011;62235;52.160;7.526;2022-09-01T14:43:48;1.73;;;0.80;;
73900;SDS011;62235;52.160;7.526;2022-09-01T14:46:14;1.73;;;0.80;;
73900;SDS011;62235;52.160;7.526;2022-09-01T14:48:40;2.88;;;0.70;;
73900;SDS011;62235;52.160;7.526;2022-09-01T14:51:06;1.38;;;0.47;;
73900;SDS011;62235;52.160;7.526;2022-09-01T14:53:33;0.98;;;0.80;;
73900;SDS011;62235;52.160;7.526;2022-09-01T14:55:59;2.58;;;0.93;;
73900;SDS011;62235;52.160;7.526;2022-09-01T14:58:25;2.05;;;0.60;;
73900;SDS011;62235;52.160;7.526;2022-09-01T15:00:52;2.97;;;0.70;;
73900;SDS011;62235;52.160;7.526;2022-09-01T15:03:20;4.38;;;0.90;;
73900;SDS011;62235;52.160;7.526;2022-09-01T15:05:50;1.90;;;0.70;;
73900;SDS011;62235;52.160;7.526;2022-09-01T15:08:15;1.98;;;0.90;;
73900;SDS011;62235;52.160;7.526;2022-09-01T15:10:41;3.60;;;0.77;;
73900;SDS011;62235;52.160;7.526;2022-09-01T15:13:07;1.58;;;0.60;;
73900;SDS011;62235;52.160;7.526;2022-09-01T15:15:32;3.92;;;0.90;;
73900;SDS011;62235;52.160;7.526;2022-09-01T15:17:58;1.15;;;0.70;;
73900;SDS011;62235;52.160;7.526;2022-09-01T15:20:24;2.08;;;0.70;;
73900;SDS011;62235;52.160;7.526;2022-09-01T15:23:10;1.30;;;0.60;;
73900;SDS011;62235;52.160;7.526;2022-09-01T15:25:39;2.15;;;0.85;;
73900;SDS011;62235;52.160;7.526;2022-09-01T15:28:05;3.40;;;0.80;;
73900;SDS011;62235;52.160;7.526;2022-09-01T15:30:31;4.70;;;0.90;;
73900;SDS011;62235;52.160;7.526;2022-09-01T15:32:56;1.52;;;1.00;;
73900;SDS011;62235;52.160;7.526;2022-09-01T15:35:21;1.48;;;0.90;;
73900;SDS011;62235;52.160;7.526;2022-09-01T15:37:47;3.78;;;0.88;;
73900;SDS011;62235;52.160;7.526;2022-09-01T15:40:14;2.00;;;0.70;;
73900;SDS011;62235;52.160;7.526;2022-09-01T15:42:40;2.45;;;0.80;;
73900;SDS011;62235;52.160;7.526;2022-09-01T15:45:07;1.48;;;0.70;;
73900;SDS011;62235;52.160;7.526;2022-09-01T15:47:34;0.80;;;0.57;;
73900;SDS011;62235;52.160;7.526;2022-09-01T15:49:59;1.95;;;0.88;;
73900;SDS011;62235;52.160;7.526;2022-09-01T15:52:26;2.03;;;0.80;;
73900;SDS011;62235;52.160;7.526;2022-09-01T15:54:52;1.63;;;0.75;;
73900;SDS011;62235;52.160;7.526;2022-09-01T15:57:17;1.58;;;0.80;;
73900;SDS011;62235;52.160;7.526;2022-09-01T15:59:43;1.58;;;0.82;;
73900;SDS011;62235;52.160;7.526;2022-09-01T16:02:09;1.65;;;1.00;;
73900;SDS011;62235;52.160;7.526;2022-09-01T16:04:34;2.33;;;0.95;;
73900;SDS011;62235;52.160;7.526;2022-09-01T16:07:00;1.80;;;0.70;;
73900;SDS011;62235;52.160;7.526;2022-09-01T16:09:26;2.50;;;0.90;;
73900;SDS011;62235;52.160;7.526;2022-09-01T16:11:52;1.20;;;0.75;;
73900;SDS011;62235;52.160;7.526;2022-09-01T16:14:17;2.58;;;0.88;;